^^
Saratoga-Weather Station Historical Data
Daily Summary for January 15, 2022 Units:  Both    English   Metric
Daily Weekly Monthly Yearly Custom
  High: Low: Average:
Temperature: 32.4 °F /  0.2 °C 26.8 °F /  -2.9 °C 30.4 °F /  -0.9 °C
Dew Point: 31.6 °F /  -0.2 °C 25.9 °F /  -3.4 °C 29.5 °F /  -1.4 °C
Humidity: 97% 96% 97%
Wind Speed: 4mph /  6.4km/h - 0.6mph /  1km/h
Wind Gust: 6mph /  9.7km/h - -
Wind- - East
Pressure: 30.5 in /  1031.5 hPa 30.3 in /  1024.4 hPa -
Precipitation: 0.02 in /  0.5 mm    
Historical Graphs
 
 
Tabular Data for January 15, 2022
Time Temperature Dew Point Pressure Wind Wind Speed Wind Gust Humidity Rainfall Rate (Hourly) solar
00:00 30.4 °F /  -0.9 °C 29.3 °F /  -1.5 °C 30.5in /  1031.5hPa Calm     96% 0in /  0.0mm 0 W/m2
00:05 30.6 °F /  -0.8 °C 29.5 °F /  -1.4 °C 30.5in /  1031.5hPa Calm     96% 0in /  0.0mm 0 W/m2
00:10 30.6 °F /  -0.8 °C 29.5 °F /  -1.4 °C 30.5in /  1031.5hPa Calm     96% 0in /  0.0mm 0 W/m2
00:15 30.6 °F /  -0.8 °C 29.5 °F /  -1.4 °C 30.5in /  1031.5hPa Calm     96% 0in /  0.0mm 0 W/m2
00:20 30.7 °F /  -0.7 °C 29.7 °F /  -1.3 °C 30.5in /  1031.5hPa Calm     96% 0in /  0.0mm 0 W/m2
00:25 30.7 °F /  -0.7 °C 29.7 °F /  -1.3 °C 30.5in /  1031.5hPa Calm     96% 0in /  0.0mm 0 W/m2
00:30 30.7 °F /  -0.7 °C 29.7 °F /  -1.3 °C 30.5in /  1031.5hPa Calm     96% 0in /  0.0mm 0 W/m2
00:35 31.3 °F /  -0.4 °C 30.2 °F /  -1 °C 30.5in /  1031.5hPa Calm     96% 0in /  0.0mm 0 W/m2
00:40 31.5 °F /  -0.3 °C 30.7 °F /  -0.7 °C 30.5in /  1031.5hPa Calm     97% 0in /  0.0mm 0 W/m2
00:45 31.5 °F /  -0.3 °C 30.7 °F /  -0.7 °C 30.5in /  1031.2hPa Calm     97% 0in /  0.0mm 0 W/m2
00:50 31.5 °F /  -0.3 °C 30.7 °F /  -0.7 °C 30.5in /  1031.2hPa Calm     97% 0in /  0.0mm 0 W/m2
00:55 31.5 °F /  -0.3 °C 30.7 °F /  -0.7 °C 30.5in /  1031.2hPa Calm     97% 0in /  0.0mm 0 W/m2
01:00 31.3 °F /  -0.4 °C 30.6 °F /  -0.8 °C 30.5in /  1031.2hPa Calm     97% 0in /  0.0mm 0 W/m2
01:05 31.3 °F /  -0.4 °C 30.2 °F /  -1 °C 30.5in /  1031.2hPa Calm     96% 0in /  0.0mm 0 W/m2
01:10 31.1 °F /  -0.5 °C 30 °F /  -1.1 °C 30.5in /  1031.2hPa Calm     96% 0in /  0.0mm 0 W/m2
01:15 31.1 °F /  -0.5 °C 30 °F /  -1.1 °C 30.5in /  1031.2hPa Calm     96% 0in /  0.0mm 0 W/m2
01:20 30.9 °F /  -0.6 °C 29.8 °F /  -1.2 °C 30.5in /  1031.2hPa Calm     96% 0in /  0.0mm 0 W/m2
01:25 30.9 °F /  -0.6 °C 29.8 °F /  -1.2 °C 30.5in /  1031.2hPa Calm     96% 0in /  0.0mm 0 W/m2
01:30 30.9 °F /  -0.6 °C 29.8 °F /  -1.2 °C 30.5in /  1031.2hPa Calm     96% 0in /  0.0mm 0 W/m2
01:35 30.9 °F /  -0.6 °C 29.8 °F /  -1.2 °C 30.4in /  1030.8hPa Calm     96% 0in /  0.0mm 0 W/m2
01:40 30.9 °F /  -0.6 °C 29.8 °F /  -1.2 °C 30.4in /  1030.8hPa Calm     96% 0in /  0.0mm 0 W/m2
01:45 30.7 °F /  -0.7 °C 29.7 °F /  -1.3 °C 30.4in /  1030.8hPa Calm     96% 0in /  0.0mm 0 W/m2
01:50 30.6 °F /  -0.8 °C 29.5 °F /  -1.4 °C 30.4in /  1030.8hPa Calm     96% 0in /  0.0mm 0 W/m2
01:55 30.6 °F /  -0.8 °C 29.5 °F /  -1.4 °C 30.4in /  1030.8hPa Calm     96% 0in /  0.0mm 0 W/m2
02:00 30.4 °F /  -0.9 °C 29.3 °F /  -1.5 °C 30.4in /  1030.8hPa Calm     96% 0in /  0.0mm 0 W/m2
02:05 30.2 °F /  -1 °C 29.1 °F /  -1.6 °C 30.4in /  1030.8hPa Calm     96% 0in /  0.0mm 0 W/m2
02:10 30 °F /  -1.1 °C 28.9 °F /  -1.7 °C 30.4in /  1030.5hPa Calm     96% 0in /  0.0mm 0 W/m2
02:15 29.8 °F /  -1.2 °C 28.8 °F /  -1.8 °C 30.4in /  1030.5hPa Calm     96% 0in /  0.0mm 0 W/m2
02:20 29.7 °F /  -1.3 °C 28.6 °F /  -1.9 °C 30.4in /  1030.5hPa Calm     96% 0in /  0.0mm 0 W/m2
02:25 29.7 °F /  -1.3 °C 28.6 °F /  -1.9 °C 30.4in /  1030.5hPa Calm     96% 0in /  0.0mm 0 W/m2
02:30 29.7 °F /  -1.3 °C 28.6 °F /  -1.9 °C 30.4in /  1030.5hPa Calm     96% 0in /  0.0mm 0 W/m2
02:35 29.5 °F /  -1.4 °C 28.4 °F /  -2 °C 30.4in /  1030.5hPa Calm     96% 0in /  0.0mm 0 W/m2
02:40 29.5 °F /  -1.4 °C 28.4 °F /  -2 °C 30.4in /  1030.5hPa Calm     96% 0in /  0.0mm 0 W/m2
02:45 29.7 °F /  -1.3 °C 28.6 °F /  -1.9 °C 30.4in /  1030.5hPa Calm     96% 0in /  0.0mm 0 W/m2
02:50 29.7 °F /  -1.3 °C 28.9 °F /  -1.7 °C 30.4in /  1030.5hPa Calm     97% 0in /  0.0mm 0 W/m2
02:55 29.7 °F /  -1.3 °C 28.9 °F /  -1.7 °C 30.4in /  1030.5hPa Calm   2mph /  3.2km/h 97% 0in /  0.0mm 0 W/m2
03:00 29.8 °F /  -1.2 °C 29.1 °F /  -1.6 °C 30.4in /  1030.5hPa Calm     97% 0in /  0.0mm 0 W/m2
03:05 29.7 °F /  -1.3 °C 28.9 °F /  -1.7 °C 30.4in /  1030.5hPa Calm     97% 0in /  0.0mm 0 W/m2
03:10 29.7 °F /  -1.3 °C 28.9 °F /  -1.7 °C 30.4in /  1030.5hPa Calm     97% 0in /  0.0mm 0 W/m2
03:15 29.5 °F /  -1.4 °C 28.4 °F /  -2 °C 30.4in /  1030.1hPa Calm     96% 0in /  0.0mm 0 W/m2
03:20 29.5 °F /  -1.4 °C 28.4 °F /  -2 °C 30.4in /  1030.1hPa Calm     96% 0in /  0.0mm 0 W/m2
03:25 29.5 °F /  -1.4 °C 28.4 °F /  -2 °C 30.4in /  1030.1hPa Calm     96% 0in /  0.0mm 0 W/m2
03:30 29.5 °F /  -1.4 °C 28.4 °F /  -2 °C 30.4in /  1030.1hPa Calm     96% 0in /  0.0mm 0 W/m2
03:35 29.5 °F /  -1.4 °C 28.4 °F /  -2 °C 30.4in /  1030.1hPa Calm     96% 0in /  0.0mm 0 W/m2
03:40 29.3 °F /  -1.5 °C 28.2 °F /  -2.1 °C 30.4in /  1030.1hPa Calm     96% 0in /  0.0mm 0 W/m2
03:45 29.1 °F /  -1.6 °C 28 °F /  -2.2 °C 30.4in /  1030.1hPa Calm     96% 0in /  0.0mm 0 W/m2
03:50 29.1 °F /  -1.6 °C 28 °F /  -2.2 °C 30.4in /  1030.1hPa Calm     96% 0in /  0.0mm 0 W/m2
03:55 28.9 °F /  -1.7 °C 27.9 °F /  -2.3 °C 30.4in /  1030.1hPa Calm     96% 0in /  0.0mm 0 W/m2
04:00 28.9 °F /  -1.7 °C 28.2 °F /  -2.1 °C 30.4in /  1030.1hPa Calm     97% 0in /  0.0mm 0 W/m2
04:05 28.9 °F /  -1.7 °C 28.2 °F /  -2.1 °C 30.4in /  1030.1hPa Calm     97% 0in /  0.0mm 0 W/m2
04:10 28.9 °F /  -1.7 °C 27.9 °F /  -2.3 °C 30.4in /  1030.1hPa Calm     96% 0in /  0.0mm 0 W/m2
04:15 28.8 °F /  -1.8 °C 27.7 °F /  -2.4 °C 30.4in /  1030.1hPa Calm     96% 0in /  0.0mm 0 W/m2
04:20 28.8 °F /  -1.8 °C 27.7 °F /  -2.4 °C 30.4in /  1030.1hPa Calm     96% 0in /  0.0mm 0 W/m2
04:25 28.6 °F /  -1.9 °C 27.5 °F /  -2.5 °C 30.4in /  1029.8hPa Calm     96% 0in /  0.0mm 0 W/m2
04:30 28.6 °F /  -1.9 °C 27.5 °F /  -2.5 °C 30.4in /  1029.8hPa Calm     96% 0in /  0.0mm 0 W/m2
04:35 28.4 °F /  -2 °C 27.3 °F /  -2.6 °C 30.4in /  1029.8hPa Calm   1mph /  1.6km/h 96% 0in /  0.0mm 0 W/m2
04:40 28.2 °F /  -2.1 °C 27.1 °F /  -2.7 °C 30.4in /  1029.8hPa Calm     96% 0in /  0.0mm 0 W/m2
04:45 28 °F /  -2.2 °C 27 °F /  -2.8 °C 30.4in /  1029.8hPa ESE 0.9mph /  1.4km/h 2mph /  3.2km/h 96% 0in /  0.0mm 0 W/m2
04:50 28 °F /  -2.2 °C 27 °F /  -2.8 °C 30.4in /  1029.8hPa ESE 0.9mph /  1.4km/h 2mph /  3.2km/h 96% 0in /  0.0mm 0 W/m2
04:55 28 °F /  -2.2 °C 27 °F /  -2.8 °C 30.4in /  1029.8hPa ESE 0.9mph /  1.4km/h 1mph /  1.6km/h 96% 0in /  0.0mm 0 W/m2
05:00 27.9 °F /  -2.3 °C 26.8 °F /  -2.9 °C 30.4in /  1029.8hPa ESE 0.9mph /  1.4km/h 2mph /  3.2km/h 96% 0in /  0.0mm 0 W/m2
05:05 27.9 °F /  -2.3 °C 26.8 °F /  -2.9 °C 30.4in /  1029.8hPa ESE 0.9mph /  1.4km/h 2mph /  3.2km/h 96% 0in /  0.0mm 0 W/m2
05:10 27.9 °F /  -2.3 °C 26.8 °F /  -2.9 °C 30.4in /  1029.8hPa East 0.9mph /  1.4km/h 3mph /  4.8km/h 96% 0in /  0.0mm 0 W/m2
05:15 27.9 °F /  -2.3 °C 26.8 °F /  -2.9 °C 30.4in /  1029.8hPa ESE 0.9mph /  1.4km/h 3mph /  4.8km/h 96% 0in /  0.0mm 0 W/m2
05:20 27.9 °F /  -2.3 °C 26.8 °F /  -2.9 °C 30.4in /  1029.8hPa Calm     96% 0in /  0.0mm 0 W/m2
05:25 27.9 °F /  -2.3 °C 26.8 °F /  -2.9 °C 30.4in /  1029.8hPa Calm   3mph /  4.8km/h 96% 0in /  0.0mm 0 W/m2
05:30 27.7 °F /  -2.4 °C 26.6 °F /  -3 °C 30.4in /  1029.8hPa Calm   1mph /  1.6km/h 96% 0in /  0.0mm 0 W/m2
05:35 27.7 °F /  -2.4 °C 26.6 °F /  -3 °C 30.4in /  1029.8hPa SE 2mph /  3.2km/h 2mph /  3.2km/h 96% 0in /  0.0mm 0 W/m2
05:40 27.7 °F /  -2.4 °C 26.6 °F /  -3 °C 30.4in /  1029.5hPa Calm     96% 0in /  0.0mm 0 W/m2
05:45 27.7 °F /  -2.4 °C 26.6 °F /  -3 °C 30.4in /  1029.5hPa Calm     96% 0in /  0.0mm 0 W/m2
05:50 27.5 °F /  -2.5 °C 26.6 °F /  -3 °C 30.4in /  1029.5hPa Calm   2mph /  3.2km/h 96% 0in /  0.0mm 0 W/m2
05:55 27.5 °F /  -2.5 °C 26.6 °F /  -3 °C 30.4in /  1029.5hPa Calm     96% 0in /  0.0mm 0 W/m2
06:00 27.5 °F /  -2.5 °C 26.8 °F /  -2.9 °C 30.4in /  1029.5hPa Calm   2mph /  3.2km/h 97% 0in /  0.0mm 0 W/m2
06:05 27.3 °F /  -2.6 °C 26.6 °F /  -3 °C 30.4in /  1029.5hPa Calm     97% 0in /  0.0mm 0 W/m2
06:10 27.3 °F /  -2.6 °C 26.6 °F /  -3 °C 30.4in /  1029.5hPa East 0.9mph /  1.4km/h 2mph /  3.2km/h 97% 0in /  0.0mm 0 W/m2
06:15 27.3 °F /  -2.6 °C 26.4 °F /  -3.1 °C 30.4in /  1029.5hPa East 0.9mph /  1.4km/h 2mph /  3.2km/h 96% 0in /  0.0mm 0 W/m2
06:20 27.1 °F /  -2.7 °C 26.2 °F /  -3.2 °C 30.4in /  1029.5hPa Calm   1mph /  1.6km/h 96% 0in /  0.0mm 0 W/m2
06:25 27.1 °F /  -2.7 °C 26.2 °F /  -3.2 °C 30.4in /  1029.5hPa Calm   1mph /  1.6km/h 96% 0in /  0.0mm 0 W/m2
06:30 27 °F /  -2.8 °C 26.1 °F /  -3.3 °C 30.4in /  1029.5hPa East 2mph /  3.2km/h 3mph /  4.8km/h 96% 0in /  0.0mm 0 W/m2
06:35 27 °F /  -2.8 °C 26.1 °F /  -3.3 °C 30.4in /  1029.5hPa Calm     96% 0in /  0.0mm 0 W/m2
06:40 27 °F /  -2.8 °C 26.1 °F /  -3.3 °C 30.4in /  1029.5hPa ESE 0.9mph /  1.4km/h 1mph /  1.6km/h 96% 0in /  0.0mm 0 W/m2
06:45 27 °F /  -2.8 °C 26.1 °F /  -3.3 °C 30.4in /  1029.5hPa Calm     96% 0in /  0.0mm 0 W/m2
06:50 27 °F /  -2.8 °C 26.1 °F /  -3.3 °C 30.4in /  1029.5hPa Calm     96% 0in /  0.0mm 0 W/m2
06:55 26.8 °F /  -2.9 °C 25.9 °F /  -3.4 °C 30.4in /  1029.5hPa Calm     96% 0in /  0.0mm 0 W/m2
07:00 26.8 °F /  -2.9 °C 25.9 °F /  -3.4 °C 30.4in /  1029.1hPa Calm     96% 0in /  0.0mm 0 W/m2
07:05 26.8 °F /  -2.9 °C 25.9 °F /  -3.4 °C 30.4in /  1029.5hPa Calm     96% 0in /  0.0mm 0 W/m2
07:10 26.8 °F /  -2.9 °C 25.9 °F /  -3.4 °C 30.4in /  1029.5hPa ESE 0.9mph /  1.4km/h 1mph /  1.6km/h 96% 0in /  0.0mm 0 W/m2
07:15 27 °F /  -2.8 °C 26.1 °F /  -3.3 °C 30.4in /  1029.1hPa Calm   2mph /  3.2km/h 96% 0in /  0.0mm 0 W/m2
07:20 27 °F /  -2.8 °C 26.1 °F /  -3.3 °C 30.4in /  1029.1hPa Calm     96% 0in /  0.0mm 0 W/m2
07:25 27 °F /  -2.8 °C 26.2 °F /  -3.2 °C 30.4in /  1029.1hPa Calm     97% 0in /  0.0mm 0 W/m2
07:30 27.1 °F /  -2.7 °C 26.4 °F /  -3.1 °C 30.4in /  1029.1hPa Calm     97% 0in /  0.0mm 0 W/m2
07:35 27.1 °F /  -2.7 °C 26.4 °F /  -3.1 °C 30.4in /  1029.1hPa East 0.9mph /  1.4km/h 2mph /  3.2km/h 97% 0in /  0.0mm 0 W/m2
07:40 27.1 °F /  -2.7 °C 26.4 °F /  -3.1 °C 30.4in /  1029.1hPa Calm   2mph /  3.2km/h 97% 0in /  0.0mm 0 W/m2
07:45 27.1 °F /  -2.7 °C 26.4 °F /  -3.1 °C 30.4in /  1029.1hPa Calm   1mph /  1.6km/h 97% 0in /  0.0mm 0 W/m2
07:50 27 °F /  -2.8 °C 26.2 °F /  -3.2 °C 30.4in /  1029.1hPa NE 2mph /  3.2km/h 3mph /  4.8km/h 97% 0in /  0.0mm 0 W/m2
07:55 27 °F /  -2.8 °C 26.2 °F /  -3.2 °C 30.4in /  1029.1hPa Calm   1mph /  1.6km/h 97% 0in /  0.0mm 0 W/m2
08:00 27.1 °F /  -2.7 °C 26.4 °F /  -3.1 °C 30.4in /  1029.1hPa ESE 0.9mph /  1.4km/h 3mph /  4.8km/h 97% 0in /  0.0mm 0 W/m2
08:05 27 °F /  -2.8 °C 26.2 °F /  -3.2 °C 30.4in /  1029.1hPa Calm   1mph /  1.6km/h 97% 0in /  0.0mm 0 W/m2
08:11 27 °F /  -2.8 °C 26.2 °F /  -3.2 °C 30.4in /  1029.1hPa Calm     97% 0in /  0.0mm 0 W/m2
08:16 27 °F /  -2.8 °C 26.2 °F /  -3.2 °C 30.4in /  1029.1hPa Calm     97% 0in /  0.0mm 0 W/m2
08:21 27.1 °F /  -2.7 °C 26.4 °F /  -3.1 °C 30.4in /  1029.1hPa NE 2mph /  3.2km/h 2mph /  3.2km/h 97% 0in /  0.0mm 0 W/m2
08:26 27.1 °F /  -2.7 °C 26.4 °F /  -3.1 °C 30.4in /  1029.1hPa Calm   2mph /  3.2km/h 97% 0in /  0.0mm 0 W/m2
08:31 27.1 °F /  -2.7 °C 26.4 °F /  -3.1 °C 30.4in /  1029.1hPa Calm   1mph /  1.6km/h 97% 0in /  0.0mm 0 W/m2
08:36 27.1 °F /  -2.7 °C 26.4 °F /  -3.1 °C 30.4in /  1029.1hPa Calm   2mph /  3.2km/h 97% 0in /  0.0mm 0 W/m2
08:41 27.1 °F /  -2.7 °C 26.4 °F /  -3.1 °C 30.4in /  1029.1hPa Calm   2mph /  3.2km/h 97% 0in /  0.0mm 5 W/m2
08:46 27.3 °F /  -2.6 °C 26.6 °F /  -3 °C 30.4in /  1029.1hPa NW 0.9mph /  1.4km/h 2mph /  3.2km/h 97% 0in /  0.0mm 7 W/m2
08:51 27.3 °F /  -2.6 °C 26.6 °F /  -3 °C 30.4in /  1029.1hPa Calm   1mph /  1.6km/h 97% 0in /  0.0mm 9 W/m2
08:56 27.5 °F /  -2.5 °C 26.8 °F /  -2.9 °C 30.4in /  1029.1hPa NNE 0.9mph /  1.4km/h 4mph /  6.4km/h 97% 0in /  0.0mm 11 W/m2
09:01 27.7 °F /  -2.4 °C 27 °F /  -2.8 °C 30.4in /  1028.8hPa NNW 0.9mph /  1.4km/h 1mph /  1.6km/h 97% 0in /  0.0mm 12 W/m2
09:06 27.7 °F /  -2.4 °C 27 °F /  -2.8 °C 30.4in /  1028.8hPa Calm   3mph /  4.8km/h 97% 0in /  0.0mm 16 W/m2
09:11 27.7 °F /  -2.4 °C 27 °F /  -2.8 °C 30.4in /  1028.8hPa Calm     97% 0in /  0.0mm 18 W/m2
09:16 27.9 °F /  -2.3 °C 27.1 °F /  -2.7 °C 30.4in /  1028.8hPa Calm   2mph /  3.2km/h 97% 0in /  0.0mm 19 W/m2
09:21 27.9 °F /  -2.3 °C 27.1 °F /  -2.7 °C 30.4in /  1028.8hPa Calm   1mph /  1.6km/h 97% 0in /  0.0mm 25 W/m2
09:26 28 °F /  -2.2 °C 27.3 °F /  -2.6 °C 30.4in /  1028.8hPa East 2.9mph /  4.7km/h 4mph /  6.4km/h 97% 0in /  0.0mm 19 W/m2
09:31 28 °F /  -2.2 °C 27.3 °F /  -2.6 °C 30.4in /  1028.8hPa Calm   2mph /  3.2km/h 97% 0in /  0.0mm 25 W/m2
09:36 28.2 °F /  -2.1 °C 27.5 °F /  -2.5 °C 30.4in /  1028.8hPa Calm   1mph /  1.6km/h 97% 0in /  0.0mm 26 W/m2
09:41 28.4 °F /  -2 °C 27.7 °F /  -2.4 °C 30.4in /  1028.8hPa Calm   1mph /  1.6km/h 97% 0in /  0.0mm 26 W/m2
09:46 28.6 °F /  -1.9 °C 27.9 °F /  -2.3 °C 30.4in /  1028.8hPa North 0.9mph /  1.4km/h 2mph /  3.2km/h 97% 0in /  0.0mm 33 W/m2
09:51 28.6 °F /  -1.9 °C 27.9 °F /  -2.3 °C 30.4in /  1028.5hPa Calm   1mph /  1.6km/h 97% 0in /  0.0mm 37 W/m2
09:56 28.8 °F /  -1.8 °C 28 °F /  -2.2 °C 30.4in /  1028.5hPa Calm     97% 0in /  0.0mm 44 W/m2
10:01 28.8 °F /  -1.8 °C 28 °F /  -2.2 °C 30.4in /  1028.5hPa Calm     97% 0in /  0.0mm 49 W/m2
10:06 28.9 °F /  -1.7 °C 28.2 °F /  -2.1 °C 30.4in /  1028.5hPa Calm   1mph /  1.6km/h 97% 0in /  0.0mm 46 W/m2
10:11 28.9 °F /  -1.7 °C 28.2 °F /  -2.1 °C 30.4in /  1028.8hPa North 0.9mph /  1.4km/h 1mph /  1.6km/h 97% 0in /  0.0mm 53 W/m2
10:16 29.1 °F /  -1.6 °C 28.4 °F /  -2 °C 30.4in /  1028.8hPa East 0.9mph /  1.4km/h 3mph /  4.8km/h 97% 0in /  0.0mm 46 W/m2
10:21 29.1 °F /  -1.6 °C 28.4 °F /  -2 °C 30.4in /  1028.8hPa ENE 2mph /  3.2km/h 2mph /  3.2km/h 97% 0in /  0.0mm 49 W/m2
10:26 29.1 °F /  -1.6 °C 28.4 °F /  -2 °C 30.4in /  1028.8hPa Calm   3mph /  4.8km/h 97% 0in /  0.0mm 62 W/m2
10:31 29.3 °F /  -1.5 °C 28.6 °F /  -1.9 °C 30.4in /  1028.5hPa ESE 2mph /  3.2km/h 2mph /  3.2km/h 97% 0in /  0.0mm 56 W/m2
10:36 29.5 °F /  -1.4 °C 28.8 °F /  -1.8 °C 30.4in /  1028.5hPa ENE 0.9mph /  1.4km/h 2mph /  3.2km/h 97% 0in /  0.0mm 62 W/m2
10:41 29.7 °F /  -1.3 °C 28.9 °F /  -1.7 °C 30.4in /  1028.8hPa ENE 0.9mph /  1.4km/h 1mph /  1.6km/h 97% 0in /  0.0mm 67 W/m2
10:46 29.7 °F /  -1.3 °C 28.9 °F /  -1.7 °C 30.4in /  1028.8hPa ENE 0.9mph /  1.4km/h 2mph /  3.2km/h 97% 0in /  0.0mm 72 W/m2
10:51 29.8 °F /  -1.2 °C 29.1 °F /  -1.6 °C 30.4in /  1028.8hPa Calm   2mph /  3.2km/h 97% 0in /  0.0mm 88 W/m2
10:56 29.8 °F /  -1.2 °C 29.1 °F /  -1.6 °C 30.4in /  1028.5hPa Calm     97% 0in /  0.0mm 81 W/m2
11:01 30 °F /  -1.1 °C 29.3 °F /  -1.5 °C 30.4in /  1028.8hPa Calm   1mph /  1.6km/h 97% 0in /  0.0mm 81 W/m2
11:06 30.2 °F /  -1 °C 29.5 °F /  -1.4 °C 30.4in /  1028.8hPa Calm   1mph /  1.6km/h 97% 0in /  0.0mm 100 W/m2
11:11 30.4 °F /  -0.9 °C 29.7 °F /  -1.3 °C 30.4in /  1028.8hPa ENE 2mph /  3.2km/h 2mph /  3.2km/h 97% 0in /  0.0mm 97 W/m2
11:16 30.4 °F /  -0.9 °C 29.7 °F /  -1.3 °C 30.4in /  1028.5hPa Calm   2mph /  3.2km/h 97% 0in /  0.0mm 86 W/m2
11:21 30.4 °F /  -0.9 °C 29.7 °F /  -1.3 °C 30.4in /  1028.5hPa East 0.9mph /  1.4km/h 2mph /  3.2km/h 97% 0in /  0.0mm 86 W/m2
11:26 30.4 °F /  -0.9 °C 29.7 °F /  -1.3 °C 30.4in /  1028.5hPa Calm   3mph /  4.8km/h 97% 0in /  0.0mm 74 W/m2
11:31 30.6 °F /  -0.8 °C 29.8 °F /  -1.2 °C 30.4in /  1028.5hPa East 0.9mph /  1.4km/h 2mph /  3.2km/h 97% 0in /  0.0mm 70 W/m2
11:36 30.6 °F /  -0.8 °C 29.8 °F /  -1.2 °C 30.4in /  1028.5hPa Calm   2mph /  3.2km/h 97% 0in /  0.0mm 93 W/m2
11:41 30.6 °F /  -0.8 °C 29.8 °F /  -1.2 °C 30.4in /  1028.5hPa ESE 2mph /  3.2km/h 2mph /  3.2km/h 97% 0in /  0.0mm 74 W/m2
11:46 30.6 °F /  -0.8 °C 29.8 °F /  -1.2 °C 30.4in /  1028.5hPa ESE 2mph /  3.2km/h 3mph /  4.8km/h 97% 0in /  0.0mm 93 W/m2
11:51 30.6 °F /  -0.8 °C 29.8 °F /  -1.2 °C 30.4in /  1028.5hPa ESE 0.9mph /  1.4km/h 2mph /  3.2km/h 97% 0.02in /  0.5mm 83 W/m2
11:56 30.6 °F /  -0.8 °C 29.8 °F /  -1.2 °C 30.4in /  1028.5hPa ESE 0.9mph /  1.4km/h 2mph /  3.2km/h 97% 0.02in /  0.5mm 83 W/m2
12:01 30.6 °F /  -0.8 °C 29.8 °F /  -1.2 °C 30.4in /  1028.1hPa ENE 2mph /  3.2km/h 2mph /  3.2km/h 97% 0.02in /  0.5mm 77 W/m2
12:06 30.6 °F /  -0.8 °C 29.8 °F /  -1.2 °C 30.4in /  1028.5hPa East 0.9mph /  1.4km/h 2mph /  3.2km/h 97% 0.02in /  0.5mm 77 W/m2
12:11 30.7 °F /  -0.7 °C 30 °F /  -1.1 °C 30.4in /  1028.1hPa SE 2mph /  3.2km/h 2mph /  3.2km/h 97% 0.02in /  0.5mm 88 W/m2
12:16 30.7 °F /  -0.7 °C 30 °F /  -1.1 °C 30.4in /  1028.1hPa East 2mph /  3.2km/h 2mph /  3.2km/h 97% 0.02in /  0.5mm 102 W/m2
12:21 30.7 °F /  -0.7 °C 30 °F /  -1.1 °C 30.4in /  1028.1hPa Calm   2mph /  3.2km/h 97% 0.02in /  0.5mm 77 W/m2
12:26 30.7 °F /  -0.7 °C 30 °F /  -1.1 °C 30.4in /  1028.1hPa East 0.9mph /  1.4km/h 3mph /  4.8km/h 97% 0.02in /  0.5mm 111 W/m2
12:31 30.7 °F /  -0.7 °C 30 °F /  -1.1 °C 30.4in /  1027.8hPa ENE 0.9mph /  1.4km/h 4mph /  6.4km/h 97% 0.02in /  0.5mm 88 W/m2
12:36 30.9 °F /  -0.6 °C 30.2 °F /  -1 °C 30.4in /  1027.8hPa Calm   2mph /  3.2km/h 97% 0.02in /  0.5mm 107 W/m2
12:41 30.9 °F /  -0.6 °C 30.2 °F /  -1 °C 30.4in /  1027.8hPa East 2.9mph /  4.7km/h 4mph /  6.4km/h 97% 0.02in /  0.5mm 95 W/m2
12:46 31.1 °F /  -0.5 °C 30.4 °F /  -0.9 °C 30.4in /  1027.8hPa NE 0.9mph /  1.4km/h 2mph /  3.2km/h 97% 0.02in /  0.5mm 118 W/m2
12:51 31.1 °F /  -0.5 °C 30.4 °F /  -0.9 °C 30.4in /  1027.8hPa East 2mph /  3.2km/h 2mph /  3.2km/h 97% 0in /  0.0mm 128 W/m2
12:56 31.3 °F /  -0.4 °C 30.6 °F /  -0.8 °C 30.4in /  1027.8hPa Calm   3mph /  4.8km/h 97% 0in /  0.0mm 100 W/m2
13:01 31.3 °F /  -0.4 °C 30.6 °F /  -0.8 °C 30.4in /  1027.8hPa ESE 2.9mph /  4.7km/h 4mph /  6.4km/h 97% 0in /  0.0mm 114 W/m2
13:06 31.5 °F /  -0.3 °C 30.7 °F /  -0.7 °C 30.3in /  1027.4hPa ENE 2mph /  3.2km/h 6mph /  9.7km/h 97% 0in /  0.0mm 100 W/m2
13:11 31.5 °F /  -0.3 °C 30.7 °F /  -0.7 °C 30.3in /  1027.4hPa ESE 2mph /  3.2km/h 4mph /  6.4km/h 97% 0in /  0.0mm 83 W/m2
13:16 31.5 °F /  -0.3 °C 30.7 °F /  -0.7 °C 30.3in /  1027.4hPa East 0.9mph /  1.4km/h 2mph /  3.2km/h 97% 0in /  0.0mm 90 W/m2
13:21 31.5 °F /  -0.3 °C 30.7 °F /  -0.7 °C 30.3in /  1027.4hPa Calm   4mph /  6.4km/h 97% 0in /  0.0mm 90 W/m2
13:26 31.5 °F /  -0.3 °C 30.7 °F /  -0.7 °C 30.3in /  1027.4hPa East 0.9mph /  1.4km/h 3mph /  4.8km/h 97% 0in /  0.0mm 91 W/m2
13:31 31.6 °F /  -0.2 °C 30.9 °F /  -0.6 °C 30.3in /  1027.1hPa East 0.9mph /  1.4km/h 3mph /  4.8km/h 97% 0in /  0.0mm 90 W/m2
13:36 31.6 °F /  -0.2 °C 30.9 °F /  -0.6 °C 30.3in /  1027.1hPa ENE 0.9mph /  1.4km/h 2mph /  3.2km/h 97% 0in /  0.0mm 95 W/m2
13:41 31.6 °F /  -0.2 °C 30.9 °F /  -0.6 °C 30.3in /  1027.1hPa ENE 0.9mph /  1.4km/h 3mph /  4.8km/h 97% 0in /  0.0mm 84 W/m2
13:46 31.6 °F /  -0.2 °C 30.9 °F /  -0.6 °C 30.3in /  1027.1hPa ENE 0.9mph /  1.4km/h 3mph /  4.8km/h 97% 0in /  0.0mm 79 W/m2
13:51 31.6 °F /  -0.2 °C 30.9 °F /  -0.6 °C 30.3in /  1027.1hPa ENE 0.9mph /  1.4km/h 1mph /  1.6km/h 97% 0in /  0.0mm 95 W/m2
13:56 31.6 °F /  -0.2 °C 30.9 °F /  -0.6 °C 30.3in /  1026.8hPa ENE 0.9mph /  1.4km/h 5mph /  8km/h 97% 0in /  0.0mm 91 W/m2
14:01 31.6 °F /  -0.2 °C 30.9 °F /  -0.6 °C 30.3in /  1026.8hPa Calm   2mph /  3.2km/h 97% 0in /  0.0mm 77 W/m2
14:06 31.6 °F /  -0.2 °C 30.9 °F /  -0.6 °C 30.3in /  1026.8hPa ENE 2.9mph /  4.7km/h 4mph /  6.4km/h 97% 0in /  0.0mm 79 W/m2
14:11 31.6 °F /  -0.2 °C 30.9 °F /  -0.6 °C 30.3in /  1026.8hPa NE 2mph /  3.2km/h 4mph /  6.4km/h 97% 0in /  0.0mm 84 W/m2
14:16 31.6 °F /  -0.2 °C 30.9 °F /  -0.6 °C 30.3in /  1026.8hPa NE 2mph /  3.2km/h 2mph /  3.2km/h 97% 0in /  0.0mm 69 W/m2
14:21 31.8 °F /  -0.1 °C 31.1 °F /  -0.5 °C 30.3in /  1026.8hPa Calm   1mph /  1.6km/h 97% 0in /  0.0mm 72 W/m2
14:26 32 °F /  0 °C 31.3 °F /  -0.4 °C 30.3in /  1026.8hPa East 2mph /  3.2km/h 2mph /  3.2km/h 97% 0in /  0.0mm 90 W/m2
14:31 32.2 °F /  0.1 °C 31.5 °F /  -0.3 °C 30.3in /  1026.8hPa Calm   4mph /  6.4km/h 97% 0in /  0.0mm 109 W/m2
14:36 32.2 °F /  0.1 °C 31.5 °F /  -0.3 °C 30.3in /  1026.8hPa Calm   2mph /  3.2km/h 97% 0in /  0.0mm 90 W/m2
14:41 32.2 °F /  0.1 °C 31.5 °F /  -0.3 °C 30.3in /  1026.4hPa Calm   1mph /  1.6km/h 97% 0in /  0.0mm 77 W/m2
14:46 32.2 °F /  0.1 °C 31.5 °F /  -0.3 °C 30.3in /  1026.4hPa Calm   1mph /  1.6km/h 97% 0in /  0.0mm 69 W/m2
14:51 32.2 °F /  0.1 °C 31.5 °F /  -0.3 °C 30.3in /  1026.4hPa Calm     97% 0in /  0.0mm 53 W/m2
14:56 32.4 °F /  0.2 °C 31.6 °F /  -0.2 °C 30.3in /  1026.4hPa NE 2mph /  3.2km/h 2mph /  3.2km/h 97% 0in /  0.0mm 58 W/m2
15:01 32.2 °F /  0.1 °C 31.5 °F /  -0.3 °C 30.3in /  1026.4hPa Calm   2mph /  3.2km/h 97% 0in /  0.0mm 53 W/m2
15:06 32.2 °F /  0.1 °C 31.5 °F /  -0.3 °C 30.3in /  1026.4hPa Calm     97% 0in /  0.0mm 42 W/m2
15:11 32.2 °F /  0.1 °C 31.5 °F /  -0.3 °C 30.3in /  1026.4hPa Calm   2mph /  3.2km/h 97% 0in /  0.0mm 47 W/m2
15:16 32.2 °F /  0.1 °C 31.5 °F /  -0.3 °C 30.3in /  1026.4hPa Calm   1mph /  1.6km/h 97% 0in /  0.0mm 51 W/m2
15:21 32.4 °F /  0.2 °C 31.6 °F /  -0.2 °C 30.3in /  1026.1hPa Calm   2mph /  3.2km/h 97% 0in /  0.0mm 42 W/m2
15:26 32.4 °F /  0.2 °C 31.6 °F /  -0.2 °C 30.3in /  1026.1hPa ENE 2mph /  3.2km/h 3mph /  4.8km/h 97% 0in /  0.0mm 46 W/m2
15:31 32.2 °F /  0.1 °C 31.5 °F /  -0.3 °C 30.3in /  1026.1hPa Calm     97% 0in /  0.0mm 37 W/m2
15:36 32.4 °F /  0.2 °C 31.6 °F /  -0.2 °C 30.3in /  1026.1hPa Calm   3mph /  4.8km/h 97% 0in /  0.0mm 33 W/m2
15:41 32.2 °F /  0.1 °C 31.5 °F /  -0.3 °C 30.3in /  1026.1hPa Calm   1mph /  1.6km/h 97% 0in /  0.0mm 39 W/m2
15:47 32.4 °F /  0.2 °C 31.6 °F /  -0.2 °C 30.3in /  1026.1hPa Calm     97% 0in /  0.0mm 26 W/m2
15:52 32.4 °F /  0.2 °C 31.6 °F /  -0.2 °C 30.3in /  1026.1hPa Calm     97% 0in /  0.0mm 30 W/m2
15:57 32.4 °F /  0.2 °C 31.6 °F /  -0.2 °C 30.3in /  1026.1hPa NNE 0.9mph /  1.4km/h 2mph /  3.2km/h 97% 0in /  0.0mm 28 W/m2
16:02 32.4 °F /  0.2 °C 31.6 °F /  -0.2 °C 30.3in /  1026.1hPa Calm     97% 0in /  0.0mm 18 W/m2
16:07 32.4 °F /  0.2 °C 31.6 °F /  -0.2 °C 30.3in /  1026.1hPa Calm   2mph /  3.2km/h 97% 0in /  0.0mm 21 W/m2
16:12 32.4 °F /  0.2 °C 31.6 °F /  -0.2 °C 30.3in /  1026.1hPa Calm     97% 0in /  0.0mm 16 W/m2
16:17 32.4 °F /  0.2 °C 31.6 °F /  -0.2 °C 30.3in /  1026.1hPa Calm   1mph /  1.6km/h 97% 0in /  0.0mm 14 W/m2
16:22 32.4 °F /  0.2 °C 31.6 °F /  -0.2 °C 30.3in /  1026.1hPa Calm     97% 0in /  0.0mm 18 W/m2
16:27 32.4 °F /  0.2 °C 31.6 °F /  -0.2 °C 30.3in /  1026.1hPa Calm     97% 0in /  0.0mm 18 W/m2
16:32 32.4 °F /  0.2 °C 31.6 °F /  -0.2 °C 30.3in /  1026.1hPa Calm     97% 0in /  0.0mm 11 W/m2
16:37 32.4 °F /  0.2 °C 31.6 °F /  -0.2 °C 30.3in /  1026.1hPa Calm     97% 0in /  0.0mm 11 W/m2
16:42 32.4 °F /  0.2 °C 31.6 °F /  -0.2 °C 30.3in /  1026.1hPa Calm     97% 0in /  0.0mm 9 W/m2
16:47 32.4 °F /  0.2 °C 31.3 °F /  -0.4 °C 30.3in /  1025.7hPa ENE 0.9mph /  1.4km/h 3mph /  4.8km/h 96% 0in /  0.0mm 7 W/m2
16:52 32.4 °F /  0.2 °C 31.3 °F /  -0.4 °C 30.3in /  1025.7hPa Calm   2mph /  3.2km/h 96% 0in /  0.0mm 5 W/m2
16:57 32.4 °F /  0.2 °C 31.3 °F /  -0.4 °C 30.3in /  1025.7hPa East 2mph /  3.2km/h 3mph /  4.8km/h 96% 0in /  0.0mm 0 W/m2
17:02 32.4 °F /  0.2 °C 31.3 °F /  -0.4 °C 30.3in /  1025.7hPa Calm   3mph /  4.8km/h 96% 0in /  0.0mm 0 W/m2
17:07 32.4 °F /  0.2 °C 31.3 °F /  -0.4 °C 30.3in /  1025.7hPa NE 2mph /  3.2km/h 2mph /  3.2km/h 96% 0in /  0.0mm 0 W/m2
17:12 32.4 °F /  0.2 °C 31.3 °F /  -0.4 °C 30.3in /  1025.7hPa NE 0.9mph /  1.4km/h 3mph /  4.8km/h 96% 0in /  0.0mm 0 W/m2
17:17 32.4 °F /  0.2 °C 31.3 °F /  -0.4 °C 30.3in /  1025.7hPa Calm   2mph /  3.2km/h 96% 0in /  0.0mm 0 W/m2
17:22 32.2 °F /  0.1 °C 31.1 °F /  -0.5 °C 30.3in /  1025.7hPa East 0.9mph /  1.4km/h 2mph /  3.2km/h 96% 0in /  0.0mm 0 W/m2
17:27 32.4 °F /  0.2 °C 31.3 °F /  -0.4 °C 30.3in /  1025.7hPa East 2mph /  3.2km/h 4mph /  6.4km/h 96% 0in /  0.0mm 0 W/m2
17:32 32.4 °F /  0.2 °C 31.3 °F /  -0.4 °C 30.3in /  1025.7hPa Calm   2mph /  3.2km/h 96% 0in /  0.0mm 0 W/m2
17:37 32.4 °F /  0.2 °C 31.3 °F /  -0.4 °C 30.3in /  1025.7hPa ENE 0.9mph /  1.4km/h 4mph /  6.4km/h 96% 0in /  0.0mm 0 W/m2
17:42 32.4 °F /  0.2 °C 31.3 °F /  -0.4 °C 30.3in /  1025.7hPa ENE 2mph /  3.2km/h 3mph /  4.8km/h 96% 0in /  0.0mm 0 W/m2
17:47 32.4 °F /  0.2 °C 31.3 °F /  -0.4 °C 30.3in /  1025.7hPa Calm   4mph /  6.4km/h 96% 0in /  0.0mm 0 W/m2
17:52 32.4 °F /  0.2 °C 31.3 °F /  -0.4 °C 30.3in /  1025.7hPa ENE 0.9mph /  1.4km/h 2mph /  3.2km/h 96% 0in /  0.0mm 0 W/m2
17:57 32.2 °F /  0.1 °C 31.1 °F /  -0.5 °C 30.3in /  1025.7hPa East 0.9mph /  1.4km/h 3mph /  4.8km/h 96% 0in /  0.0mm 0 W/m2
18:02 32.2 °F /  0.1 °C 31.1 °F /  -0.5 °C 30.3in /  1025.7hPa Calm   2mph /  3.2km/h 96% 0in /  0.0mm 0 W/m2
18:07 32.2 °F /  0.1 °C 31.1 °F /  -0.5 °C 30.3in /  1025.7hPa East 0.9mph /  1.4km/h 3mph /  4.8km/h 96% 0in /  0.0mm 0 W/m2
18:12 32.2 °F /  0.1 °C 31.1 °F /  -0.5 °C 30.3in /  1025.7hPa SE 2mph /  3.2km/h 4mph /  6.4km/h 96% 0in /  0.0mm 0 W/m2
18:17 32.2 °F /  0.1 °C 31.1 °F /  -0.5 °C 30.3in /  1025.7hPa East 0.9mph /  1.4km/h 2mph /  3.2km/h 96% 0in /  0.0mm 0 W/m2
18:22 32.2 °F /  0.1 °C 31.1 °F /  -0.5 °C 30.3in /  1025.7hPa ESE 2mph /  3.2km/h 2mph /  3.2km/h 96% 0in /  0.0mm 0 W/m2
18:27 32 °F /  0 °C 30.9 °F /  -0.6 °C 30.3in /  1025.7hPa SE 2mph /  3.2km/h 3mph /  4.8km/h 96% 0in /  0.0mm 0 W/m2
18:32 31.8 °F /  -0.1 °C 30.7 °F /  -0.7 °C 30.3in /  1025.7hPa ESE 0.9mph /  1.4km/h 3mph /  4.8km/h 96% 0in /  0.0mm 0 W/m2
18:37 31.8 °F /  -0.1 °C 31.1 °F /  -0.5 °C 30.3in /  1025.7hPa Calm   4mph /  6.4km/h 97% 0in /  0.0mm 0 W/m2
18:42 31.8 °F /  -0.1 °C 30.7 °F /  -0.7 °C 30.3in /  1025.7hPa ENE 0.9mph /  1.4km/h 3mph /  4.8km/h 96% 0in /  0.0mm 0 W/m2
18:47 31.8 °F /  -0.1 °C 30.7 °F /  -0.7 °C 30.3in /  1025.7hPa Calm   4mph /  6.4km/h 96% 0in /  0.0mm 0 W/m2
18:52 31.8 °F /  -0.1 °C 30.7 °F /  -0.7 °C 30.3in /  1025.7hPa ESE 0.9mph /  1.4km/h 3mph /  4.8km/h 96% 0in /  0.0mm 0 W/m2
18:57 31.6 °F /  -0.2 °C 30.6 °F /  -0.8 °C 30.3in /  1025.7hPa Calm     96% 0in /  0.0mm 0 W/m2
19:02 31.6 °F /  -0.2 °C 30.6 °F /  -0.8 °C 30.3in /  1025.7hPa Calm   3mph /  4.8km/h 96% 0in /  0.0mm 0 W/m2
19:07 31.6 °F /  -0.2 °C 30.6 °F /  -0.8 °C 30.3in /  1025.7hPa NE 0.9mph /  1.4km/h 2mph /  3.2km/h 96% 0in /  0.0mm 0 W/m2
19:12 31.6 °F /  -0.2 °C 30.6 °F /  -0.8 °C 30.3in /  1025.7hPa ENE 2.9mph /  4.7km/h 3mph /  4.8km/h 96% 0in /  0.0mm 0 W/m2
19:17 31.6 °F /  -0.2 °C 30.6 °F /  -0.8 °C 30.3in /  1025.7hPa Calm   2mph /  3.2km/h 96% 0in /  0.0mm 0 W/m2
19:22 31.6 °F /  -0.2 °C 30.6 °F /  -0.8 °C 30.3in /  1025.7hPa East 2.9mph /  4.7km/h 3mph /  4.8km/h 96% 0in /  0.0mm 0 W/m2
19:27 31.6 °F /  -0.2 °C 30.6 °F /  -0.8 °C 30.3in /  1025.7hPa East 0.9mph /  1.4km/h 1mph /  1.6km/h 96% 0in /  0.0mm 0 W/m2
19:32 31.6 °F /  -0.2 °C 30.6 °F /  -0.8 °C 30.3in /  1025.7hPa East 0.9mph /  1.4km/h 2mph /  3.2km/h 96% 0in /  0.0mm 0 W/m2
19:38 31.6 °F /  -0.2 °C 30.6 °F /  -0.8 °C 30.3in /  1025.7hPa Calm   2mph /  3.2km/h 96% 0in /  0.0mm 0 W/m2
19:43 31.6 °F /  -0.2 °C 30.6 °F /  -0.8 °C 30.3in /  1025.7hPa ESE 0.9mph /  1.4km/h 2mph /  3.2km/h 96% 0in /  0.0mm 0 W/m2
19:48 31.6 °F /  -0.2 °C 30.6 °F /  -0.8 °C 30.3in /  1025.7hPa Calm   2mph /  3.2km/h 96% 0in /  0.0mm 0 W/m2
19:53 31.6 °F /  -0.2 °C 30.6 °F /  -0.8 °C 30.3in /  1025.7hPa Calm   2mph /  3.2km/h 96% 0in /  0.0mm 0 W/m2
19:58 31.6 °F /  -0.2 °C 30.9 °F /  -0.6 °C 30.3in /  1025.7hPa ESE 0.9mph /  1.4km/h 2mph /  3.2km/h 97% 0in /  0.0mm 0 W/m2
20:03 31.6 °F /  -0.2 °C 30.9 °F /  -0.6 °C 30.3in /  1025.7hPa Calm   2mph /  3.2km/h 97% 0in /  0.0mm 0 W/m2
20:08 31.6 °F /  -0.2 °C 30.9 °F /  -0.6 °C 30.3in /  1025.7hPa Calm   1mph /  1.6km/h 97% 0in /  0.0mm 0 W/m2
20:13 31.8 °F /  -0.1 °C 31.1 °F /  -0.5 °C 30.3in /  1025.7hPa Calm   2mph /  3.2km/h 97% 0in /  0.0mm 0 W/m2
20:18 31.8 °F /  -0.1 °C 31.1 °F /  -0.5 °C 30.3in /  1026.1hPa Calm     97% 0in /  0.0mm 0 W/m2
20:23 31.8 °F /  -0.1 °C 31.1 °F /  -0.5 °C 30.3in /  1026.1hPa Calm   1mph /  1.6km/h 97% 0in /  0.0mm 0 W/m2
20:28 31.8 °F /  -0.1 °C 31.1 °F /  -0.5 °C 30.3in /  1026.8hPa Calm   2mph /  3.2km/h 97% 0in /  0.0mm 0 W/m2
20:33 31.8 °F /  -0.1 °C 31.1 °F /  -0.5 °C 30.3in /  1026.8hPa ESE 2mph /  3.2km/h 2mph /  3.2km/h 97% 0in /  0.0mm 0 W/m2
20:38 31.8 °F /  -0.1 °C 31.1 °F /  -0.5 °C 30.3in /  1026.8hPa SE 0.9mph /  1.4km/h 4mph /  6.4km/h 97% 0in /  0.0mm 0 W/m2
20:43 31.8 °F /  -0.1 °C 31.1 °F /  -0.5 °C 30.3in /  1026.1hPa Calm   1mph /  1.6km/h 97% 0in /  0.0mm 0 W/m2
20:48 31.8 °F /  -0.1 °C 31.1 °F /  -0.5 °C 30.3in /  1024.7hPa ESE 2mph /  3.2km/h 2mph /  3.2km/h 97% 0in /  0.0mm 0 W/m2
20:53 31.8 °F /  -0.1 °C 31.1 °F /  -0.5 °C 30.3in /  1024.4hPa Calm   1mph /  1.6km/h 97% 0in /  0.0mm 0 W/m2
20:58 31.8 °F /  -0.1 °C 31.1 °F /  -0.5 °C 30.3in /  1024.7hPa East 0.9mph /  1.4km/h 4mph /  6.4km/h 97% 0in /  0.0mm 0 W/m2
21:03 32 °F /  0 °C 31.3 °F /  -0.4 °C 30.3in /  1025.4hPa East 2mph /  3.2km/h 2mph /  3.2km/h 97% 0in /  0.0mm 0 W/m2
21:08 32 °F /  0 °C 31.3 °F /  -0.4 °C 30.3in /  1025.7hPa SE 0.9mph /  1.4km/h 1mph /  1.6km/h 97% 0in /  0.0mm 0 W/m2
21:13 32 °F /  0 °C 31.3 °F /  -0.4 °C 30.3in /  1025.4hPa Calm   1mph /  1.6km/h 97% 0in /  0.0mm 0 W/m2
21:18 32 °F /  0 °C 31.3 °F /  -0.4 °C 30.3in /  1025.4hPa Calm   2mph /  3.2km/h 97% 0in /  0.0mm 0 W/m2
21:23 32 °F /  0 °C 31.3 °F /  -0.4 °C 30.3in /  1025.1hPa Calm   2mph /  3.2km/h 97% 0in /  0.0mm 0 W/m2
21:28 31.8 °F /  -0.1 °C 31.1 °F /  -0.5 °C 30.3in /  1025.1hPa ESE 0.9mph /  1.4km/h 2mph /  3.2km/h 97% 0in /  0.0mm 0 W/m2
21:33 31.8 °F /  -0.1 °C 31.1 °F /  -0.5 °C 30.3in /  1025.1hPa ESE 0.9mph /  1.4km/h 2mph /  3.2km/h 97% 0in /  0.0mm 0 W/m2
21:38 31.8 °F /  -0.1 °C 31.1 °F /  -0.5 °C 30.3in /  1025.1hPa SE 2.9mph /  4.7km/h 3mph /  4.8km/h 97% 0in /  0.0mm 0 W/m2
21:43 31.8 °F /  -0.1 °C 31.1 °F /  -0.5 °C 30.3in /  1025.4hPa ESE 2mph /  3.2km/h 3mph /  4.8km/h 97% 0in /  0.0mm 0 W/m2
21:48 31.8 °F /  -0.1 °C 31.1 °F /  -0.5 °C 30.3in /  1025.4hPa East 0.9mph /  1.4km/h 1mph /  1.6km/h 97% 0in /  0.0mm 0 W/m2
21:53 31.8 °F /  -0.1 °C 31.1 °F /  -0.5 °C 30.3in /  1025.7hPa ESE 2mph /  3.2km/h 6mph /  9.7km/h 97% 0in /  0.0mm 0 W/m2
21:58 31.8 °F /  -0.1 °C 31.1 °F /  -0.5 °C 30.3in /  1025.4hPa ESE 0.9mph /  1.4km/h 2mph /  3.2km/h 97% 0in /  0.0mm 0 W/m2
22:03 31.8 °F /  -0.1 °C 31.1 °F /  -0.5 °C 30.3in /  1025.1hPa ESE 2mph /  3.2km/h 4mph /  6.4km/h 97% 0in /  0.0mm 0 W/m2
22:08 31.8 °F /  -0.1 °C 31.1 °F /  -0.5 °C 30.3in /  1025.1hPa ESE 2.9mph /  4.7km/h 3mph /  4.8km/h 97% 0in /  0.0mm 0 W/m2
22:13 31.8 °F /  -0.1 °C 30.7 °F /  -0.7 °C 30.3in /  1025.1hPa ESE 2mph /  3.2km/h 4mph /  6.4km/h 96% 0in /  0.0mm 0 W/m2
22:18 31.8 °F /  -0.1 °C 30.7 °F /  -0.7 °C 30.3in /  1025.1hPa SE 0.9mph /  1.4km/h 4mph /  6.4km/h 96% 0in /  0.0mm 0 W/m2
22:23 31.8 °F /  -0.1 °C 30.7 °F /  -0.7 °C 30.3in /  1025.1hPa ESE 2mph /  3.2km/h 4mph /  6.4km/h 96% 0in /  0.0mm 0 W/m2
22:28 31.6 °F /  -0.2 °C 30.6 °F /  -0.8 °C 30.3in /  1025.1hPa SE 0.9mph /  1.4km/h 3mph /  4.8km/h 96% 0in /  0.0mm 0 W/m2
22:33 31.6 °F /  -0.2 °C 30.6 °F /  -0.8 °C 30.3in /  1025.4hPa Calm   4mph /  6.4km/h 96% 0in /  0.0mm 0 W/m2
22:38 31.5 °F /  -0.3 °C 30.7 °F /  -0.7 °C 30.3in /  1025.7hPa Calm   2mph /  3.2km/h 97% 0in /  0.0mm 0 W/m2
22:43 31.5 °F /  -0.3 °C 30.4 °F /  -0.9 °C 30.3in /  1025.7hPa SE 0.9mph /  1.4km/h 4mph /  6.4km/h 96% 0in /  0.0mm 0 W/m2
22:48 31.5 °F /  -0.3 °C 30.4 °F /  -0.9 °C 30.3in /  1025.7hPa East 0.9mph /  1.4km/h 3mph /  4.8km/h 96% 0in /  0.0mm 0 W/m2
22:53 31.3 °F /  -0.4 °C 30.2 °F /  -1 °C 30.3in /  1025.7hPa Calm   2mph /  3.2km/h 96% 0in /  0.0mm 0 W/m2
22:58 31.3 °F /  -0.4 °C 30.2 °F /  -1 °C 30.3in /  1025.4hPa Calm   2mph /  3.2km/h 96% 0in /  0.0mm 0 W/m2
23:03 31.3 °F /  -0.4 °C 30.2 °F /  -1 °C 30.3in /  1025.7hPa SE 2mph /  3.2km/h 3mph /  4.8km/h 96% 0in /  0.0mm 0 W/m2
23:08 31.3 °F /  -0.4 °C 30.2 °F /  -1 °C 30.3in /  1025.4hPa SE 2mph /  3.2km/h 4mph /  6.4km/h 96% 0in /  0.0mm 0 W/m2
23:13 31.3 °F /  -0.4 °C 30.2 °F /  -1 °C 30.3in /  1025.4hPa ESE 0.9mph /  1.4km/h 2mph /  3.2km/h 96% 0in /  0.0mm 0 W/m2
23:18 31.3 °F /  -0.4 °C 30.2 °F /  -1 °C 30.3in /  1025.4hPa East 2mph /  3.2km/h 5mph /  8km/h 96% 0in /  0.0mm 0 W/m2
23:23 31.3 °F /  -0.4 °C 30.2 °F /  -1 °C 30.3in /  1025.4hPa ESE 0.9mph /  1.4km/h 2mph /  3.2km/h 96% 0in /  0.0mm 0 W/m2
23:28 31.3 °F /  -0.4 °C 30.2 °F /  -1 °C 30.3in /  1025.7hPa ESE 2mph /  3.2km/h 4mph /  6.4km/h 96% 0in /  0.0mm 0 W/m2
23:33 31.1 °F /  -0.5 °C 30 °F /  -1.1 °C 30.3in /  1025.7hPa ESE 0.9mph /  1.4km/h 2mph /  3.2km/h 96% 0in /  0.0mm 0 W/m2
23:38 31.1 °F /  -0.5 °C 30 °F /  -1.1 °C 30.3in /  1025.4hPa ESE 2.9mph /  4.7km/h 3mph /  4.8km/h 96% 0in /  0.0mm 0 W/m2
23:43 31.1 °F /  -0.5 °C 30 °F /  -1.1 °C 30.3in /  1025.4hPa East 4mph /  6.4km/h 5mph /  8km/h 96% 0in /  0.0mm 0 W/m2
23:48 30.9 °F /  -0.6 °C 29.8 °F /  -1.2 °C 30.3in /  1025.4hPa SE 2mph /  3.2km/h 3mph /  4.8km/h 96% 0in /  0.0mm 0 W/m2
23:53 30.9 °F /  -0.6 °C 29.8 °F /  -1.2 °C 30.3in /  1025.7hPa ESE 2.9mph /  4.7km/h 3mph /  4.8km/h 96% 0in /  0.0mm 0 W/m2
23:58 30.7 °F /  -0.7 °C 29.7 °F /  -1.3 °C 30.3in /  1025.4hPa ESE 0.9mph /  1.4km/h 3mph /  4.8km/h 96% 0in /  0.0mm 0 W/m2
Juneau County Weather
Compliments of Weather Underground - 4 mb